MSC Rania — 3EEB3 — position and weather

sailwx.info

Track history (hours):
 
Tides and Currents Weather Stations Pressure Air Temp Water Temp Dewpoint Dewpoint Depression Visibility Wind Speed Wind Dir Waves Ship Positions

MSC Rania

Last reported at 2015-Aug-04 09:31 UTC. Time now 2015-Aug-04 09:48 UTC.
Position N 40°40' W 074°09'.

Length 332 m; draft 12.8 m.

Type: Ship (hazmat cat A). MMSI: 371752000.

Date/timePositionNaut miles runAvg speedWind from/ knotsBaromVisibWave heightAir tempDewpointWater temp
2015-Aug-04 09:31N 40°40' W 074°09'0 0.0
2015-Aug-04 08:31N 40°40' W 074°09'0 0.0
2015-Aug-04 07:31N 40°40' W 074°09'0 0.0
2015-Aug-04 06:31N 40°40' W 074°09'0 0.0
2015-Aug-04 05:31N 40°40' W 074°09'0 0.0
2015-Aug-04 04:31N 40°40' W 074°09'0 0.0
2015-Aug-04 03:31N 40°40' W 074°09'0 0.0
2015-Aug-04 02:31N 40°40' W 074°09'0 0.0
2015-Aug-04 01:34N 40°40' W 074°09'0 0.0
2015-Aug-04 00:34N 40°40' W 074°09'0 0.0
2015-Aug-03 23:33N 40°40' W 074°09'0 0.0
2015-Aug-03 22:33N 40°40' W 074°09'0 0.0
2015-Aug-03 21:33N 40°40' W 074°09'0 0.0
2015-Aug-03 20:33N 40°40' W 074°09'3 3.2
2015-Aug-03 19:33N 40°39' W 074°05'1010.1
2015-Aug-03 18:34N 40°30' W 073°58'1111.1
2015-Aug-03 17:33N 40°25' W 073°45'1616.0
2015-Aug-03 16:33N 40°16' W 073°27'2120.6
2015-Aug-03 15:33N 40°06' W 073°04'2020.4
2015-Aug-03 14:33N 40°04' W 072°37'2120.8
2015-Aug-03 13:33N 40°03' W 072°10'2121.0
2015-Aug-03 12:34N 40°03' W 071°43'2221.5
2015-Aug-03 11:33N 40°01' W 071°15'1918.6
2015-Aug-03 10:33N 39°60' W 070°51'2020.0
2015-Aug-03 09:33N 39°59' W 070°24'2524.2
2015-Aug-03 08:31N 39°58' W 069°52'1920.3
2015-Aug-03 07:34N 39°57' W 069°26'2019.5
2015-Aug-03 06:33N 39°56' W 069°01'2121.3
2015-Aug-03 05:34N 39°55' W 068°33'2020.1
2015-Aug-03 04:33N 39°54' W 068°07'1817.8
2015-Aug-03 03:33N 39°53' W 067°44'  
2015-Jul-30 10:31N 40°10' W 029°25'2120.9
2015-Jul-30 09:31N 40°06' W 028°58'2121.4
2015-Jul-30 08:33N 40°01' W 028°32'2121.3
2015-Jul-30 07:33N 39°57' W 028°05'2321.4
2015-Jul-30 06:28N 39°52' W 027°35'18821.1
2015-Jul-29 21:33N 39°11' W 023°36'45120.5
2015-Jul-28 23:33N 37°08' W 014°24'4820.9
2015-Jul-28 21:15N 36°53' W 013°27'23420.0
2015-Jul-28 09:33N 36°10' W 008°41'2120.8
2015-Jul-28 08:33N 36°07' W 008°15'2120.9
2015-Jul-28 07:33N 36°05' W 007°49'5221.0
2015-Jul-28 05:05N 36°00' W 006°46'1120.9
2015-Jul-28 04:33N 35°59' W 006°32'2020.2
2015-Jul-28 03:33N 35°58' W 006°07'17819.7
2015-Jul-27 18:31N 36°23' W 002°28'2120.9
2015-Jul-27 17:31N 36°27' W 002°03'2021.1
2015-Jul-27 16:34N 36°31' W 001°38'2121.1
2015-Jul-27 15:33N 36°34' W 001°12'2020.4
2015-Jul-27 14:33N 36°38' W 000°47'2120.8
2015-Jul-27 13:33N 36°41' W 000°21'2120.8
2015-Jul-27 12:33N 36°45' E 000°04'2120.9
2015-Jul-27 11:33N 36°48' E 000°30'2120.6
2015-Jul-27 10:34N 36°52' E 000°55'2120.8
2015-Jul-27 09:33N 36°56' E 001°21'2121.1
2015-Jul-27 08:33N 36°60' E 001°47'6 6.2
2015-Jul-27 07:33N 37°00' E 001°55'1817.6
2015-Jul-27 06:33N 37°04' E 002°16'2121.4
2015-Jul-27 05:33N 37°07' E 002°43'2121.2
2015-Jul-27 04:33N 37°11' E 003°09'2121.2
2015-Jul-27 03:33N 37°15' E 003°35'2221.2
2015-Jul-27 02:32N 37°19' E 004°02'2121.1
2015-Jul-27 01:33N 37°22' E 004°27'2120.8
2015-Jul-27 00:34N 37°26' E 004°53'2120.7
2015-Jul-26 23:32N 37°29' E 005°19'27421.1
2015-Jul-26 10:33N 37°58' E 011°03'2121.0
2015-Jul-26 09:33N 37°50' E 011°28'3020.9
2015-Jul-26 08:07N 37°37' E 012°02'1220.7
2015-Jul-26 07:33N 37°32' E 012°16'2320.8
2015-Jul-26 06:28N 37°20' E 012°40'2021.0
2015-Jul-26 05:31N 37°11' E 013°02'2021.2
2015-Jul-26 04:33N 37°02' E 013°25'2121.2
2015-Jul-26 03:33N 36°54' E 013°49'2221.6
2015-Jul-26 02:33N 36°46' E 014°14'2121.5
2015-Jul-26 01:33N 36°36' E 014°38'2121.2
2015-Jul-26 00:33N 36°27' E 015°02'2121.3
2015-Jul-25 23:33N 36°21' E 015°28'2121.2
2015-Jul-25 22:33N 36°16' E 015°53'2421.0
2015-Jul-25 21:24N 36°11' E 016°23'1821.2
2015-Jul-25 20:33N 36°07' E 016°44'  
Track history (hours):
 
Tides and Currents Weather Stations Pressure Air Temp Water Temp Dewpoint Dewpoint Depression Visibility Wind Speed Wind Dir Waves Ship Positions

MSC Rania

Last reported at 2015-Aug-04 09:31 UTC. Time now 2015-Aug-04 09:48 UTC.
Position N 40°40' W 074°09'.

Length 332 m; draft 12.8 m.

Type: Ship (hazmat cat A). MMSI: 371752000.

Date/timePositionNaut miles runAvg speedWind from/ knotsBaromVisibWave heightAir tempDewpointWater temp
2015-Aug-04 09:31N 40°40' W 074°09'0 0.0
2015-Aug-04 08:31N 40°40' W 074°09'0 0.0
2015-Aug-04 07:31N 40°40' W 074°09'0 0.0
2015-Aug-04 06:31N 40°40' W 074°09'0 0.0
2015-Aug-04 05:31N 40°40' W 074°09'0 0.0
2015-Aug-04 04:31N 40°40' W 074°09'0 0.0
2015-Aug-04 03:31N 40°40' W 074°09'0 0.0
2015-Aug-04 02:31N 40°40' W 074°09'0 0.0
2015-Aug-04 01:34N 40°40' W 074°09'0 0.0
2015-Aug-04 00:34N 40°40' W 074°09'0 0.0
2015-Aug-03 23:33N 40°40' W 074°09'0 0.0
2015-Aug-03 22:33N 40°40' W 074°09'0 0.0
2015-Aug-03 21:33N 40°40' W 074°09'0 0.0
2015-Aug-03 20:33N 40°40' W 074°09'3 3.2
2015-Aug-03 19:33N 40°39' W 074°05'1010.1
2015-Aug-03 18:34N 40°30' W 073°58'1111.1
2015-Aug-03 17:33N 40°25' W 073°45'1616.0
2015-Aug-03 16:33N 40°16' W 073°27'2120.6
2015-Aug-03 15:33N 40°06' W 073°04'2020.4
2015-Aug-03 14:33N 40°04' W 072°37'2120.8
2015-Aug-03 13:33N 40°03' W 072°10'2121.0
2015-Aug-03 12:34N 40°03' W 071°43'2221.5
2015-Aug-03 11:33N 40°01' W 071°15'1918.6
2015-Aug-03 10:33N 39°60' W 070°51'2020.0
2015-Aug-03 09:33N 39°59' W 070°24'2524.2
2015-Aug-03 08:31N 39°58' W 069°52'1920.3
2015-Aug-03 07:34N 39°57' W 069°26'2019.5
2015-Aug-03 06:33N 39°56' W 069°01'2121.3
2015-Aug-03 05:34N 39°55' W 068°33'2020.1
2015-Aug-03 04:33N 39°54' W 068°07'1817.8
2015-Aug-03 03:33N 39°53' W 067°44'  
2015-Jul-30 10:31N 40°10' W 029°25'2120.9
2015-Jul-30 09:31N 40°06' W 028°58'2121.4
2015-Jul-30 08:33N 40°01' W 028°32'2121.3
2015-Jul-30 07:33N 39°57' W 028°05'2321.4
2015-Jul-30 06:28N 39°52' W 027°35'18821.1
2015-Jul-29 21:33N 39°11' W 023°36'45120.5
2015-Jul-28 23:33N 37°08' W 014°24'4820.9
2015-Jul-28 21:15N 36°53' W 013°27'23420.0
2015-Jul-28 09:33N 36°10' W 008°41'2120.8
2015-Jul-28 08:33N 36°07' W 008°15'2120.9
2015-Jul-28 07:33N 36°05' W 007°49'5221.0
2015-Jul-28 05:05N 36°00' W 006°46'1120.9
2015-Jul-28 04:33N 35°59' W 006°32'2020.2
2015-Jul-28 03:33N 35°58' W 006°07'17819.7
2015-Jul-27 18:31N 36°23' W 002°28'2120.9
2015-Jul-27 17:31N 36°27' W 002°03'2021.1
2015-Jul-27 16:34N 36°31' W 001°38'2121.1
2015-Jul-27 15:33N 36°34' W 001°12'2020.4
2015-Jul-27 14:33N 36°38' W 000°47'2120.8
2015-Jul-27 13:33N 36°41' W 000°21'2120.8
2015-Jul-27 12:33N 36°45' E 000°04'2120.9
2015-Jul-27 11:33N 36°48' E 000°30'2120.6
2015-Jul-27 10:34N 36°52' E 000°55'2120.8
2015-Jul-27 09:33N 36°56' E 001°21'2121.1
2015-Jul-27 08:33N 36°60' E 001°47'6 6.2
2015-Jul-27 07:33N 37°00' E 001°55'1817.6
2015-Jul-27 06:33N 37°04' E 002°16'2121.4
2015-Jul-27 05:33N 37°07' E 002°43'2121.2
2015-Jul-27 04:33N 37°11' E 003°09'2121.2
2015-Jul-27 03:33N 37°15' E 003°35'2221.2
2015-Jul-27 02:32N 37°19' E 004°02'2121.1
2015-Jul-27 01:33N 37°22' E 004°27'2120.8
2015-Jul-27 00:34N 37°26' E 004°53'2120.7
2015-Jul-26 23:32N 37°29' E 005°19'27421.1
2015-Jul-26 10:33N 37°58' E 011°03'2121.0
2015-Jul-26 09:33N 37°50' E 011°28'3020.9
2015-Jul-26 08:07N 37°37' E 012°02'1220.7
2015-Jul-26 07:33N 37°32' E 012°16'2320.8
2015-Jul-26 06:28N 37°20' E 012°40'2021.0
2015-Jul-26 05:31N 37°11' E 013°02'2021.2
2015-Jul-26 04:33N 37°02' E 013°25'2121.2
2015-Jul-26 03:33N 36°54' E 013°49'2221.6
2015-Jul-26 02:33N 36°46' E 014°14'2121.5
2015-Jul-26 01:33N 36°36' E 014°38'2121.2
2015-Jul-26 00:33N 36°27' E 015°02'2121.3
2015-Jul-25 23:33N 36°21' E 015°28'2121.2
2015-Jul-25 22:33N 36°16' E 015°53'2421.0
2015-Jul-25 21:24N 36°11' E 016°23'1821.2
2015-Jul-25 20:33N 36°07' E 016°44'  

Dump ship's entire track history